Powell Point, Texas
Current Conditions -  °F | °C
As of 7:15 AM on Thursday 23 Oct 2014 (Local Time) from KARM Reporting Station
Clear Clear  
Wind Chill: 61°   Ceiling: Unl
Heat Index: 61°   Visibility: 10mi
Dew Point: 58°   Wind: 0mph
Humidity: 90%   Direction: NA
Pressure: 30.09"   Gusts: NA
Location:  29.4506°N, 96.0068°W
Report Text: KARM 231215Z AUTO 00000KT 10SM CLR 16/15 A3009 RMK AO2 T01620145
Loading
Personal Weather Stations






























Interactive Weather Map
Tropical Storm Tracking
New forecast layout! Learn more

10-Day Weather Forecast

Advertisements
Track Severe Weather on mobile